createdAt,value
2023-04-28T00:01:50.675Z,58.78
2023-04-28T00:04:17.589Z,58.89
2023-04-28T00:06:43.485Z,58.89
2023-04-28T00:09:09.894Z,59.18
2023-04-28T00:11:36.311Z,59.18
2023-04-28T00:14:02.770Z,59.41
2023-04-28T00:16:29.247Z,59.57
2023-04-28T00:18:55.557Z,59.58
2023-04-28T00:21:22.059Z,59.91
2023-04-28T00:23:48.439Z,59.82
2023-04-28T00:26:14.950Z,59.86
2023-04-28T00:28:41.312Z,59.61
2023-04-28T00:31:09.127Z,59.78
2023-04-28T00:33:34.243Z,59.79
2023-04-28T00:36:00.706Z,60.04
2023-04-28T00:38:27.067Z,60.16
2023-04-28T00:40:53.504Z,60.16
2023-04-28T00:43:19.951Z,60.44
2023-04-28T00:45:46.507Z,60.49
2023-04-28T00:48:12.825Z,60.67
2023-04-28T00:50:39.503Z,60.76
2023-04-28T00:53:05.917Z,61.13
2023-04-28T00:55:32.332Z,61.22
2023-04-28T00:57:58.795Z,61.10
2023-04-28T01:00:25.185Z,61.46
2023-04-28T01:02:51.733Z,61.59
2023-04-28T01:05:18.080Z,61.78
2023-04-28T01:07:44.457Z,62.15
2023-04-28T01:10:10.917Z,62.00
2023-04-28T01:12:37.280Z,62.18
2023-04-28T01:15:03.687Z,62.27
2023-04-28T01:17:30.188Z,62.46
2023-04-28T01:19:56.552Z,62.51
2023-04-28T01:22:23.028Z,62.70
2023-04-28T01:24:49.435Z,62.57
2023-04-28T01:27:15.934Z,62.54
2023-04-28T01:29:42.299Z,62.79
2023-04-28T01:32:08.690Z,63.06
2023-04-28T01:34:35.148Z,63.46
2023-04-28T01:37:01.628Z,63.50
2023-04-28T01:39:28.085Z,63.45
2023-04-28T01:41:54.610Z,63.72
2023-04-28T01:44:21.111Z,64.01
2023-04-28T01:46:47.511Z,63.73
2023-04-28T01:49:13.920Z,63.80
2023-04-28T01:51:40.435Z,63.77
2023-04-28T01:54:06.798Z,63.81
2023-04-28T01:56:33.268Z,63.75
2023-04-28T01:58:59.733Z,63.54
2023-04-28T02:01:26.136Z,63.35
2023-04-28T02:03:52.831Z,63.54
2023-04-28T02:06:18.991Z,63.34
2023-04-28T02:08:45.388Z,63.22
2023-04-28T02:11:11.834Z,63.48
2023-04-28T02:13:38.312Z,63.41
2023-04-28T02:16:04.744Z,63.24
2023-04-28T02:18:31.262Z,63.50
2023-04-28T02:20:57.636Z,63.41
2023-04-28T02:23:24.162Z,63.59
2023-04-28T02:25:50.548Z,63.56
2023-04-28T02:28:16.959Z,63.74
2023-04-28T02:30:43.338Z,63.76
2023-04-28T02:33:11.487Z,63.57
2023-04-28T02:35:36.287Z,63.69
2023-04-28T02:38:02.708Z,63.71
2023-04-28T02:40:29.125Z,63.80
2023-04-28T02:42:55.584Z,64.03
2023-04-28T02:45:22.069Z,64.17
2023-04-28T02:47:48.451Z,64.42
2023-04-28T02:50:15.013Z,64.46
2023-04-28T02:52:41.473Z,64.43
2023-04-28T02:55:07.917Z,64.44
2023-04-28T02:57:34.450Z,64.70
2023-04-28T03:00:00.796Z,64.40
2023-04-28T03:02:27.344Z,64.24
2023-04-28T03:04:53.811Z,64.50
2023-04-28T03:07:20.232Z,64.46
2023-04-28T03:09:46.557Z,64.58
2023-04-28T03:12:13.021Z,64.55
2023-04-28T03:14:39.408Z,64.60
2023-04-28T03:17:05.808Z,64.61
2023-04-28T03:19:32.184Z,64.61
2023-04-28T03:21:58.614Z,64.57
2023-04-28T03:24:24.986Z,64.39
2023-04-28T03:26:51.536Z,64.40
2023-04-28T03:29:18.207Z,64.21
2023-04-28T03:31:44.697Z,64.27
2023-04-28T03:34:11.019Z,64.20
2023-04-28T03:36:37.412Z,64.18
2023-04-28T03:39:03.833Z,64.19
2023-04-28T03:41:30.202Z,64.12
2023-04-28T03:43:56.699Z,63.96
2023-04-28T03:46:23.196Z,63.82
2023-04-28T03:48:49.561Z,63.74
2023-04-28T03:51:15.962Z,63.70
2023-04-28T03:53:42.474Z,63.43
2023-04-28T03:56:08.906Z,63.31
2023-04-28T03:58:35.318Z,62.80
2023-04-28T04:01:01.782Z,62.78
2023-04-28T04:03:28.358Z,62.85
2023-04-28T04:05:54.657Z,62.66
2023-04-28T04:08:20.992Z,62.77
2023-04-28T04:10:47.460Z,62.62
2023-04-28T04:13:13.829Z,61.92
2023-04-28T04:15:40.283Z,61.38
2023-04-28T04:18:06.760Z,60.96
2023-04-28T04:20:33.220Z,60.63
2023-04-28T04:22:59.632Z,60.44
2023-04-28T04:25:26.221Z,60.49
2023-04-28T04:27:52.565Z,59.79
2023-04-28T04:30:19.106Z,58.70
2023-04-28T04:32:45.584Z,57.91
2023-04-28T04:35:12.131Z,56.75
2023-04-28T04:37:38.558Z,55.45
2023-04-28T04:40:04.995Z,54.79
2023-04-28T04:42:31.468Z,53.60
2023-04-28T04:44:57.878Z,52.38
2023-04-28T04:47:24.337Z,51.88
2023-04-28T04:49:50.785Z,51.03
2023-04-28T04:52:17.185Z,50.30
2023-04-28T04:54:43.566Z,50.29
2023-04-28T04:57:10.004Z,49.00
2023-04-28T04:59:36.450Z,48.84
2023-04-28T05:02:02.988Z,47.34
2023-04-28T05:04:29.599Z,45.07
2023-04-28T05:06:55.903Z,44.69
2023-04-28T05:09:22.341Z,44.80
2023-04-28T05:11:48.984Z,44.94
2023-04-28T05:14:15.564Z,43.17
2023-04-28T05:16:42.935Z,41.51
2023-04-28T05:19:09.346Z,40.40
2023-04-28T05:21:35.699Z,39.29
2023-04-28T05:24:02.145Z,38.91
2023-04-28T05:26:28.607Z,38.28
2023-04-28T05:28:55.035Z,37.31
2023-04-28T05:31:21.480Z,37.72
2023-04-28T05:33:47.863Z,37.44
2023-04-28T05:36:14.249Z,37.40
2023-04-28T05:38:40.699Z,36.91
2023-04-28T05:41:07.166Z,36.69
2023-04-28T05:43:33.528Z,37.71
2023-04-28T05:46:00.213Z,38.71
2023-04-28T05:48:26.565Z,38.77
2023-04-28T05:50:53.025Z,38.98
2023-04-28T05:53:19.365Z,37.34
2023-04-28T05:55:45.996Z,37.20
2023-04-28T05:58:12.424Z,37.83
2023-04-28T06:00:38.934Z,37.48
2023-04-28T06:03:05.405Z,37.30
2023-04-28T06:05:32.118Z,36.12
2023-04-28T06:07:58.128Z,35.96
2023-04-28T06:10:24.596Z,35.53
2023-04-28T06:12:50.971Z,36.26
2023-04-28T06:15:17.434Z,36.31
2023-04-28T06:17:43.920Z,36.40
2023-04-28T06:20:10.340Z,36.01
2023-04-28T06:22:36.781Z,36.47
2023-04-28T06:25:03.166Z,36.54
2023-04-28T06:27:29.544Z,36.61
2023-04-28T06:29:55.922Z,35.27
2023-04-28T06:32:22.365Z,35.81
2023-04-28T06:34:48.725Z,35.18
2023-04-28T06:37:17.292Z,34.97
2023-04-28T06:39:43.776Z,36.16
2023-04-28T06:42:10.562Z,36.37
2023-04-28T06:44:36.993Z,36.17
2023-04-28T06:47:03.381Z,36.16
2023-04-28T06:49:29.801Z,35.91
2023-04-28T06:51:56.259Z,35.67
2023-04-28T06:54:22.680Z,35.45
2023-04-28T06:56:49.034Z,34.36
2023-04-28T06:59:15.583Z,35.24
2023-04-28T07:01:42.169Z,35.08
2023-04-28T07:04:08.750Z,35.27
2023-04-28T07:06:35.185Z,35.04
2023-04-28T07:09:01.615Z,35.11
2023-04-28T07:11:28.003Z,34.94
2023-04-28T07:13:54.475Z,34.78
2023-04-28T07:16:20.859Z,34.52
2023-04-28T07:18:47.206Z,33.99
2023-04-28T07:21:13.716Z,34.58
2023-04-28T07:23:41.325Z,33.78
2023-04-28T07:26:07.749Z,33.12
2023-04-28T07:28:34.160Z,32.79
2023-04-28T07:31:00.595Z,33.61
2023-04-28T07:33:27.052Z,33.43
2023-04-28T07:35:53.491Z,34.60
2023-04-28T07:38:19.849Z,34.33
2023-04-28T07:40:46.426Z,33.48
2023-04-28T07:43:13.227Z,31.44
2023-04-28T07:45:39.617Z,31.49
2023-04-28T07:48:06.035Z,31.20
2023-04-28T07:50:32.361Z,31.40
2023-04-28T07:52:58.882Z,30.95
2023-04-28T07:55:25.300Z,30.88
2023-04-28T07:57:51.731Z,30.18
2023-04-28T08:00:19.151Z,30.48
2023-04-28T08:02:45.748Z,30.05
2023-04-28T08:05:12.190Z,30.38
2023-04-28T08:07:38.616Z,30.43
2023-04-28T08:10:04.994Z,30.02
2023-04-28T08:12:31.426Z,30.44
2023-04-28T08:14:57.828Z,29.79
2023-04-28T08:17:24.278Z,30.05
2023-04-28T08:19:50.673Z,29.99
2023-04-28T08:22:17.045Z,28.98
2023-04-28T08:24:43.479Z,29.19
2023-04-28T08:27:09.897Z,29.79
2023-04-28T08:29:37.354Z,29.29
2023-04-28T08:32:03.834Z,28.55
2023-04-28T08:34:30.180Z,29.75
2023-04-28T08:36:56.629Z,29.51
2023-04-28T08:39:23.079Z,29.25
2023-04-28T08:41:49.450Z,28.92
2023-04-28T08:44:18.232Z,28.97
2023-04-28T08:46:44.466Z,29.44
2023-04-28T08:49:10.834Z,29.22
2023-04-28T08:51:38.141Z,29.10
2023-04-28T08:54:29.551Z,28.66
2023-04-28T08:56:30.474Z,28.20
2023-04-28T08:58:56.964Z,29.33
2023-04-28T09:01:23.387Z,29.32
2023-04-28T09:03:50.070Z,29.51
2023-04-28T09:06:16.359Z,29.05
2023-04-28T09:08:42.769Z,28.04
2023-04-28T09:11:09.214Z,28.78
2023-04-28T09:13:35.590Z,27.42
2023-04-28T09:16:02.089Z,28.33
2023-04-28T09:18:28.481Z,27.18
2023-04-28T09:20:54.876Z,27.69
2023-04-28T09:23:21.262Z,27.64
2023-04-28T09:25:50.057Z,26.54
2023-04-28T09:28:16.447Z,27.13
2023-04-28T09:30:42.881Z,27.69
2023-04-28T09:33:11.412Z,26.94
2023-04-28T09:35:35.754Z,27.68
2023-04-28T09:38:02.169Z,27.73
2023-04-28T09:40:29.018Z,27.89
2023-04-28T09:42:55.487Z,27.54
2023-04-28T09:45:22.947Z,26.60
2023-04-28T09:47:49.799Z,27.45
2023-04-28T09:50:16.212Z,25.55
2023-04-28T09:52:42.959Z,26.70
2023-04-28T09:55:09.414Z,26.51
2023-04-28T09:57:35.798Z,26.32
2023-04-28T10:00:02.243Z,26.17
2023-04-28T10:04:55.269Z,26.98
2023-04-28T10:07:21.490Z,25.89
2023-04-28T10:09:47.882Z,25.59
2023-04-28T10:12:14.746Z,25.18
2023-04-28T10:14:41.327Z,26.32
2023-04-28T10:17:07.594Z,26.70
2023-04-28T10:19:34.002Z,26.79
2023-04-28T10:22:00.421Z,26.66
2023-04-28T10:24:27.187Z,26.01
2023-04-28T10:26:53.537Z,24.79
2023-04-28T10:29:20.254Z,25.94
2023-04-28T10:31:46.725Z,26.39
2023-04-28T10:34:13.423Z,25.38
2023-04-28T10:36:39.922Z,24.54
2023-04-28T10:39:06.336Z,24.39
2023-04-28T10:41:32.754Z,24.50
2023-04-28T10:44:00.558Z,24.25
2023-04-28T10:46:27.230Z,24.29
2023-04-28T10:48:54.578Z,23.92
2023-04-28T10:51:21.061Z,24.30
2023-04-28T10:53:47.761Z,24.58
2023-04-28T10:56:13.956Z,24.02
2023-04-28T10:58:40.430Z,24.02
2023-04-28T11:01:06.849Z,23.96
2023-04-28T11:03:34.105Z,23.71
2023-04-28T11:06:00.427Z,22.79
2023-04-28T11:08:26.816Z,22.93
2023-04-28T11:10:53.234Z,23.40
2023-04-28T11:13:19.659Z,23.54
2023-04-28T11:15:46.034Z,22.36
2023-04-28T11:18:12.484Z,22.16
2023-04-28T11:20:38.883Z,21.96
2023-04-28T11:23:05.297Z,23.45
2023-04-28T11:25:31.699Z,23.10
2023-04-28T11:27:58.146Z,23.29
2023-04-28T11:30:24.517Z,24.19
2023-04-28T11:32:52.061Z,24.76
2023-04-28T11:35:18.419Z,24.64
2023-04-28T11:37:44.821Z,24.93
2023-04-28T11:40:11.731Z,26.29
2023-04-28T11:42:38.572Z,25.84
2023-04-28T11:45:04.984Z,25.67
2023-04-28T11:47:31.530Z,25.76
2023-04-28T11:49:57.941Z,25.94
2023-04-28T11:52:24.385Z,26.17
2023-04-28T11:54:50.803Z,26.16
2023-04-28T11:57:17.200Z,26.53
2023-04-28T11:59:44.041Z,26.13
2023-04-28T12:02:10.307Z,26.13
2023-04-28T12:04:36.682Z,26.46
2023-04-28T12:07:03.179Z,26.13
2023-04-28T12:09:29.570Z,25.46
2023-04-28T12:11:57.396Z,26.35
2023-04-28T12:14:23.827Z,26.43
2023-04-28T12:16:50.206Z,26.40
2023-04-28T12:19:16.609Z,26.20
2023-04-28T12:21:43.083Z,26.50
2023-04-28T12:24:09.468Z,26.33
2023-04-28T12:26:35.881Z,26.49
2023-04-28T12:29:02.718Z,26.75
2023-04-28T12:31:29.188Z,27.39
2023-04-28T12:33:55.631Z,27.24
2023-04-28T12:36:22.065Z,26.82
2023-04-28T12:38:48.491Z,27.63
2023-04-28T12:41:14.887Z,27.42
2023-04-28T12:43:41.249Z,28.08
2023-04-28T12:46:07.740Z,28.33
2023-04-28T12:48:34.075Z,27.82
2023-04-28T12:51:00.529Z,28.34
2023-04-28T12:53:27.038Z,28.63
2023-04-28T12:55:53.438Z,28.25
2023-04-28T12:58:19.812Z,28.25
2023-04-28T13:00:46.307Z,27.94
2023-04-28T13:03:12.799Z,28.77
2023-04-28T13:05:39.103Z,29.28
2023-04-28T13:08:05.530Z,29.15
2023-04-28T13:10:31.970Z,29.23
2023-04-28T13:12:58.394Z,29.45
2023-04-28T13:15:24.827Z,29.21
2023-04-28T13:17:51.310Z,29.95
2023-04-28T13:20:17.627Z,29.57
2023-04-28T13:22:44.073Z,28.88
2023-04-28T13:25:10.532Z,29.56
2023-04-28T13:27:37.768Z,30.30
2023-04-28T13:30:03.933Z,30.35
2023-04-28T13:32:30.242Z,30.46
2023-04-28T13:34:56.613Z,30.61
2023-04-28T13:37:23.074Z,30.47
2023-04-28T13:39:49.514Z,30.96
2023-04-28T13:42:15.915Z,31.19
2023-04-28T13:44:42.290Z,30.51
2023-04-28T13:47:08.665Z,30.65
2023-04-28T13:49:35.103Z,30.91
2023-04-28T13:52:02.992Z,30.99
2023-04-28T13:54:29.662Z,31.07
2023-04-28T13:56:56.144Z,30.89
2023-04-28T13:59:22.709Z,31.11
2023-04-28T14:01:49.310Z,30.83
2023-04-28T14:04:15.814Z,30.77
2023-04-28T14:06:42.132Z,30.73
2023-04-28T14:09:08.583Z,30.72
2023-04-28T14:11:34.970Z,31.23
2023-04-28T14:14:01.396Z,31.07
2023-04-28T14:16:28.062Z,31.40
2023-04-28T14:18:54.326Z,31.51
2023-04-28T14:21:20.734Z,31.86
2023-04-28T14:23:47.099Z,32.09
2023-04-28T14:26:13.474Z,31.25
2023-04-28T14:28:39.890Z,31.45
2023-04-28T14:31:06.466Z,31.22
2023-04-28T14:33:32.812Z,31.06
2023-04-28T14:35:59.253Z,31.51
2023-04-28T14:38:25.872Z,31.89
2023-04-28T14:40:52.232Z,31.69
2023-04-28T14:43:18.654Z,31.08
2023-04-28T14:45:45.055Z,31.40
2023-04-28T14:48:11.448Z,31.32
2023-04-28T14:50:37.913Z,32.92
2023-04-28T14:53:04.457Z,32.70
2023-04-28T14:55:30.851Z,32.31
2023-04-28T14:57:57.221Z,30.91
2023-04-28T15:00:23.757Z,30.98
2023-04-28T15:02:50.297Z,31.45
2023-04-28T15:05:16.550Z,31.28
2023-04-28T15:07:43.006Z,31.16
2023-04-28T15:10:09.420Z,31.25
2023-04-28T15:12:35.828Z,31.57
2023-04-28T15:15:02.357Z,31.32
2023-04-28T15:17:28.898Z,31.11
2023-04-28T15:19:55.296Z,31.02
2023-04-28T15:22:21.810Z,30.87
2023-04-28T15:24:48.462Z,31.11
2023-04-28T15:27:14.571Z,31.44
2023-04-28T15:29:41.002Z,31.34
2023-04-28T15:32:07.414Z,31.42
2023-04-28T15:34:34.090Z,31.35
2023-04-28T15:37:00.448Z,31.62
2023-04-28T15:39:26.879Z,31.84
2023-04-28T15:41:53.268Z,31.91
2023-04-28T15:44:19.662Z,31.65
2023-04-28T15:46:46.117Z,31.87
2023-04-28T15:49:12.550Z,32.09
2023-04-28T15:51:38.929Z,31.71
2023-04-28T15:54:05.317Z,31.67
2023-04-28T15:56:31.665Z,31.80
2023-04-28T15:58:58.106Z,31.73
2023-04-28T16:01:24.538Z,31.87
2023-04-28T16:03:51.059Z,31.72
2023-04-28T16:06:17.362Z,31.84
2023-04-28T16:08:43.769Z,31.79
2023-04-28T16:11:10.232Z,31.97
2023-04-28T16:13:36.743Z,32.01
2023-04-28T16:16:03.182Z,32.12
2023-04-28T16:18:29.594Z,32.21
2023-04-28T16:20:55.968Z,31.55
2023-04-28T16:23:22.419Z,31.62
2023-04-28T16:25:48.828Z,32.20
2023-04-28T16:28:15.275Z,32.26
2023-04-28T16:30:41.869Z,31.99
2023-04-28T16:33:08.251Z,32.06
2023-04-28T16:35:36.228Z,32.28
2023-04-28T16:38:02.637Z,32.19
2023-04-28T16:40:29.144Z,31.88
2023-04-28T16:42:55.535Z,31.96
2023-04-28T16:45:21.895Z,32.35
2023-04-28T16:47:48.375Z,32.42
2023-04-28T16:50:14.944Z,32.57
2023-04-28T16:52:41.116Z,32.62
2023-04-28T16:55:07.520Z,32.83
2023-04-28T16:57:33.917Z,32.91
2023-04-28T17:00:00.372Z,33.00
2023-04-28T17:02:27.169Z,32.89
2023-04-28T17:04:53.541Z,32.93
2023-04-28T17:07:19.963Z,32.98
2023-04-28T17:09:46.346Z,33.23
2023-04-28T17:12:12.800Z,33.60
2023-04-28T17:14:39.203Z,33.70
2023-04-28T17:17:05.616Z,33.53
2023-04-28T17:19:32.020Z,33.64
2023-04-28T17:21:58.461Z,34.03
2023-04-28T17:24:24.956Z,34.17
2023-04-28T17:26:52.447Z,34.23
2023-04-28T17:29:18.857Z,34.49
2023-04-28T17:31:45.353Z,34.34
2023-04-28T17:34:11.770Z,34.47
2023-04-28T17:36:38.185Z,34.38
2023-04-28T17:39:04.610Z,34.36
2023-04-28T17:41:31.013Z,34.62
2023-04-28T17:43:57.638Z,34.97
2023-04-28T17:46:24.130Z,34.98
2023-04-28T17:48:50.540Z,35.79
2023-04-28T17:51:17.036Z,37.63
2023-04-28T17:53:43.499Z,39.04
2023-04-28T17:56:09.820Z,40.10
2023-04-28T17:58:36.444Z,41.02
2023-04-28T18:01:02.838Z,41.71
2023-04-28T18:03:29.434Z,42.18
2023-04-28T18:05:55.776Z,42.79
2023-04-28T18:08:22.304Z,43.13
2023-04-28T18:10:48.680Z,43.88
2023-04-28T18:13:15.106Z,44.43
2023-04-28T18:15:41.591Z,44.39
2023-04-28T18:18:08.007Z,44.79
2023-04-28T18:20:34.499Z,45.03
2023-04-28T18:23:00.823Z,45.43
2023-04-28T18:25:27.282Z,45.88
2023-04-28T18:27:53.753Z,46.14
2023-04-28T18:30:20.115Z,46.05
2023-04-28T18:32:46.621Z,46.09
2023-04-28T18:35:13.051Z,46.46
2023-04-28T18:37:39.489Z,47.27
2023-04-28T18:40:05.920Z,47.38
2023-04-28T18:42:32.382Z,47.46
2023-04-28T18:44:58.906Z,47.99
2023-04-28T18:47:25.304Z,48.24
2023-04-28T18:49:51.813Z,48.05
2023-04-28T18:52:18.173Z,48.00
2023-04-28T18:54:45.291Z,48.44
2023-04-28T18:57:12.000Z,48.50
2023-04-28T18:59:38.613Z,48.52
2023-04-28T19:02:05.481Z,48.46
2023-04-28T19:04:32.322Z,48.40
2023-04-28T19:07:00.130Z,48.63
2023-04-28T19:09:27.267Z,48.40
2023-04-28T19:11:54.519Z,49.76
2023-04-28T19:14:21.391Z,50.20
2023-04-28T19:16:48.454Z,50.59
2023-04-28T19:19:17.255Z,50.78
2023-04-28T19:21:43.867Z,51.07
2023-04-28T19:24:13.086Z,51.31
2023-04-28T19:26:39.421Z,51.91
2023-04-28T19:29:05.923Z,52.11
2023-04-28T19:31:32.380Z,53.04
2023-04-28T19:33:58.767Z,53.03
2023-04-28T19:36:25.220Z,53.57
2023-04-28T19:38:51.687Z,53.83
2023-04-28T19:41:18.145Z,54.00
2023-04-28T19:43:44.491Z,54.10
2023-04-28T19:46:10.974Z,54.24
2023-04-28T19:48:37.376Z,54.94
2023-04-28T19:51:03.879Z,55.37
2023-04-28T19:53:30.310Z,55.56
2023-04-28T19:55:56.679Z,55.67
2023-04-28T19:58:23.126Z,55.64
2023-04-28T20:00:49.564Z,55.83
2023-04-28T20:03:16.075Z,56.03
2023-04-28T20:05:43.387Z,56.28
2023-04-28T20:08:09.863Z,56.90
2023-04-28T20:10:36.377Z,57.56
2023-04-28T20:13:02.879Z,57.61
2023-04-28T20:15:29.364Z,57.58
2023-04-28T20:17:55.822Z,57.97
2023-04-28T20:20:22.157Z,58.24
2023-04-28T20:22:48.777Z,58.17
2023-04-28T20:25:15.148Z,58.45
2023-04-28T20:27:41.562Z,58.54
2023-04-28T20:30:08.100Z,59.18
2023-04-28T20:32:34.585Z,59.53
2023-04-28T20:35:02.721Z,60.10
2023-04-28T20:37:30.605Z,59.92
2023-04-28T20:39:57.072Z,59.73
2023-04-28T20:42:23.432Z,59.77
2023-04-28T20:44:50.016Z,59.24
2023-04-28T20:47:16.411Z,59.64
2023-04-28T20:49:42.864Z,60.51
2023-04-28T20:52:11.328Z,60.83
2023-04-28T20:54:36.007Z,61.14
2023-04-28T20:57:02.250Z,60.06
2023-04-28T20:59:29.986Z,60.12
2023-04-28T21:01:55.264Z,60.15
2023-04-28T21:04:21.690Z,59.95
2023-04-28T21:06:48.200Z,60.29
2023-04-28T21:09:14.648Z,60.54
2023-04-28T21:11:41.117Z,60.44
2023-04-28T21:14:07.612Z,60.64
2023-04-28T21:16:34.055Z,60.85
2023-04-28T21:19:00.436Z,61.21
2023-04-28T21:21:26.873Z,61.21
2023-04-28T21:23:53.291Z,62.11
2023-04-28T21:26:19.659Z,62.42
2023-04-28T21:28:46.097Z,62.76
2023-04-28T21:31:12.593Z,62.93
2023-04-28T21:33:39.068Z,63.56
2023-04-28T21:36:05.527Z,64.12
2023-04-28T21:38:31.967Z,64.24
2023-04-28T21:40:58.375Z,64.77
2023-04-28T21:43:24.901Z,64.87
2023-04-28T21:45:51.358Z,65.45
2023-04-28T21:48:17.813Z,65.55
2023-04-28T21:50:44.201Z,66.56
2023-04-28T21:53:10.708Z,66.78
2023-04-28T21:55:37.389Z,67.46
2023-04-28T21:58:03.895Z,67.94
2023-04-28T22:00:30.285Z,67.78
2023-04-28T22:02:56.935Z,67.47
2023-04-28T22:05:23.373Z,67.53
2023-04-28T22:07:49.809Z,67.63
2023-04-28T22:10:16.421Z,67.52
2023-04-28T22:12:43.079Z,67.69
2023-04-28T22:15:09.600Z,68.50
2023-04-28T22:17:36.205Z,68.42
2023-04-28T22:20:02.653Z,68.69
2023-04-28T22:22:29.135Z,68.73
2023-04-28T22:24:55.740Z,69.20
2023-04-28T22:27:22.149Z,69.59
2023-04-28T22:29:48.777Z,69.97
2023-04-28T22:32:15.111Z,70.27
2023-04-28T22:34:44.237Z,70.54
2023-04-28T22:37:08.217Z,71.02
2023-04-28T22:39:34.848Z,71.30
2023-04-28T22:42:01.068Z,71.52
2023-04-28T22:44:27.678Z,71.92
2023-04-28T22:46:54.339Z,72.07
2023-04-28T22:49:20.689Z,72.26
2023-04-28T22:51:47.103Z,72.25
2023-04-28T22:54:13.657Z,72.33
2023-04-28T22:56:40.107Z,72.51
2023-04-28T22:59:06.592Z,72.96
2023-04-28T23:01:33.169Z,73.41
2023-04-28T23:03:59.598Z,73.44
2023-04-28T23:06:26.108Z,73.01
2023-04-28T23:08:52.556Z,73.30
2023-04-28T23:11:19.087Z,73.46
2023-04-28T23:13:45.628Z,73.07
2023-04-28T23:16:13.725Z,73.12
2023-04-28T23:18:38.640Z,72.89
2023-04-28T23:21:05.407Z,73.20
2023-04-28T23:23:31.812Z,73.42
2023-04-28T23:25:58.632Z,72.17
2023-04-28T23:28:25.131Z,70.65
2023-04-28T23:30:51.541Z,71.71
2023-04-28T23:33:18.026Z,71.63
2023-04-28T23:35:44.511Z,70.41
2023-04-28T23:38:11.039Z,69.68
2023-04-28T23:40:37.402Z,68.72
2023-04-28T23:43:03.943Z,67.17
2023-04-28T23:45:30.518Z,67.09
2023-04-28T23:47:56.942Z,66.89
2023-04-28T23:50:23.431Z,66.61
2023-04-28T23:52:49.976Z,67.25
2023-04-28T23:55:16.632Z,67.01
2023-04-28T23:57:43.097Z,66.54
